sensor_id;sensor_type;location;lat;lon;timestamp;pressure;altitude;pressure_sealevel;temperature;humidity
56174;BME280;42058;52.308;20.924;2023-05-09T00:02:24;102019.87;;;7.01;85.98
56174;BME280;42058;52.308;20.924;2023-05-09T00:04:50;102013.38;;;6.98;86.43
56174;BME280;42058;52.308;20.924;2023-05-09T00:07:17;102013.86;;;6.95;86.56
56174;BME280;42058;52.308;20.924;2023-05-09T00:09:43;102011.02;;;6.92;86.59
56174;BME280;42058;52.308;20.924;2023-05-09T00:12:09;102010.80;;;6.89;86.65
56174;BME280;42058;52.308;20.924;2023-05-09T00:14:37;102007.43;;;6.85;86.78
56174;BME280;42058;52.308;20.924;2023-05-09T00:17:05;102009.14;;;6.82;86.65
56174;BME280;42058;52.308;20.924;2023-05-09T00:19:32;102005.95;;;6.79;86.67
56174;BME280;42058;52.308;20.924;2023-05-09T00:21:59;102009.58;;;6.77;86.77
56174;BME280;42058;52.308;20.924;2023-05-09T00:24:25;102006.40;;;6.73;86.83
56174;BME280;42058;52.308;20.924;2023-05-09T00:26:52;102001.64;;;6.70;86.99
56174;BME280;42058;52.308;20.924;2023-05-09T00:29:18;101999.48;;;6.66;86.70
56174;BME280;42058;52.308;20.924;2023-05-09T00:31:44;101999.61;;;6.64;87.31
56174;BME280;42058;52.308;20.924;2023-05-09T00:34:11;101996.78;;;6.60;87.56
56174;BME280;42058;52.308;20.924;2023-05-09T00:36:37;101994.27;;;6.56;87.28
56174;BME280;42058;52.308;20.924;2023-05-09T00:39:03;101995.80;;;6.53;87.87
56174;BME280;42058;52.308;20.924;2023-05-09T00:41:30;101997.34;;;6.51;87.81
56174;BME280;42058;52.308;20.924;2023-05-09T00:43:56;101997.97;;;6.48;87.97
56174;BME280;42058;52.308;20.924;2023-05-09T00:46:23;101999.14;;;6.44;88.36
56174;BME280;42058;52.308;20.924;2023-05-09T00:48:49;101996.49;;;6.41;88.60
56174;BME280;42058;52.308;20.924;2023-05-09T00:51:17;101993.28;;;6.37;88.77
56174;BME280;42058;52.308;20.924;2023-05-09T00:53:49;101998.16;;;6.36;88.84
56174;BME280;42058;52.308;20.924;2023-05-09T00:56:15;101996.02;;;6.34;89.13
56174;BME280;42058;52.308;20.924;2023-05-09T00:58:42;101996.70;;;6.32;89.02
56174;BME280;42058;52.308;20.924;2023-05-09T01:01:09;101993.70;;;6.30;89.34
56174;BME280;42058;52.308;20.924;2023-05-09T01:03:38;101992.79;;;6.28;89.63
56174;BME280;42058;52.308;20.924;2023-05-09T01:08:55;101997.22;;;6.21;89.48
56174;BME280;42058;52.308;20.924;2023-05-09T01:11:38;101998.38;;;6.19;89.64
56174;BME280;42058;52.308;20.924;2023-05-09T01:17:09;101999.84;;;6.12;90.41
56174;BME280;42058;52.308;20.924;2023-05-09T01:19:55;101997.02;;;6.09;90.81
56174;BME280;42058;52.308;20.924;2023-05-09T01:22:29;101995.04;;;6.06;90.40
56174;BME280;42058;52.308;20.924;2023-05-09T01:27:52;101994.79;;;6.02;91.35
56174;BME280;42058;52.308;20.924;2023-05-09T01:30:24;101997.35;;;5.99;91.18
56174;BME280;42058;52.308;20.924;2023-05-09T01:32:53;101999.92;;;5.96;90.89
56174;BME280;42058;52.308;20.924;2023-05-09T01:35:24;101996.55;;;5.94;91.02
56174;BME280;42058;52.308;20.924;2023-05-09T01:37:53;101996.50;;;5.91;91.10
56174;BME280;42058;52.308;20.924;2023-05-09T01:40:20;101998.58;;;5.91;91.10
56174;BME280;42058;52.308;20.924;2023-05-09T01:42:56;101995.23;;;5.89;91.19
56174;BME280;42058;52.308;20.924;2023-05-09T01:45:24;101996.24;;;5.87;91.29
56174;BME280;42058;52.308;20.924;2023-05-09T01:47:52;102000.05;;;5.85;91.47
56174;BME280;42058;52.308;20.924;2023-05-09T01:50:20;102000.35;;;5.83;91.44
56174;BME280;42058;52.308;20.924;2023-05-09T01:52:48;102002.56;;;5.80;91.12
56174;BME280;42058;52.308;20.924;2023-05-09T01:55:17;102002.88;;;5.79;91.46
56174;BME280;42058;52.308;20.924;2023-05-09T01:57:48;101998.48;;;5.76;91.53
56174;BME280;42058;52.308;20.924;2023-05-09T02:00:17;101997.95;;;5.75;91.51
56174;BME280;42058;52.308;20.924;2023-05-09T02:02:45;101997.22;;;5.73;91.84
56174;BME280;42058;52.308;20.924;2023-05-09T02:05:13;101994.55;;;5.71;91.81
56174;BME280;42058;52.308;20.924;2023-05-09T02:07:41;101991.88;;;5.68;91.71
56174;BME280;42058;52.308;20.924;2023-05-09T02:10:08;101993.23;;;5.66;91.70
56174;BME280;42058;52.308;20.924;2023-05-09T02:12:37;101992.85;;;5.64;91.53
56174;BME280;42058;52.308;20.924;2023-05-09T02:15:04;101986.88;;;5.61;91.70
56174;BME280;42058;52.308;20.924;2023-05-09T02:17:31;101988.59;;;5.59;91.63
56174;BME280;42058;52.308;20.924;2023-05-09T02:20:01;101984.70;;;5.55;91.85
56174;BME280;42058;52.308;20.924;2023-05-09T02:22:30;101985.34;;;5.53;91.64
56174;BME280;42058;52.308;20.924;2023-05-09T02:24:59;101993.30;;;5.51;91.61
56174;BME280;42058;52.308;20.924;2023-05-09T02:27:26;101995.52;;;5.49;91.53
56174;BME280;42058;52.308;20.924;2023-05-09T02:29:55;101998.78;;;5.46;91.57
56174;BME280;42058;52.308;20.924;2023-05-09T02:32:26;101997.34;;;5.43;91.66
56174;BME280;42058;52.308;20.924;2023-05-09T02:34:54;101993.81;;;5.41;92.02
56174;BME280;42058;52.308;20.924;2023-05-09T02:37:21;101994.29;;;5.39;92.46
56174;BME280;42058;52.308;20.924;2023-05-09T02:39:48;101995.45;;;5.36;92.28
56174;BME280;42058;52.308;20.924;2023-05-09T02:42:21;101992.95;;;5.33;92.47
56174;BME280;42058;52.308;20.924;2023-05-09T02:44:51;101992.55;;;5.31;92.94
56174;BME280;42058;52.308;20.924;2023-05-09T02:47:17;101995.80;;;5.28;92.86
56174;BME280;42058;52.308;20.924;2023-05-09T02:49:43;101994.02;;;5.26;92.85
56174;BME280;42058;52.308;20.924;2023-05-09T02:52:10;101991.35;;;5.24;93.03
56174;BME280;42058;52.308;20.924;2023-05-09T02:54:37;101991.16;;;5.21;93.05
56174;BME280;42058;52.308;20.924;2023-05-09T02:57:04;101990.04;;;5.18;93.08
56174;BME280;42058;52.308;20.924;2023-05-09T02:59:30;101988.42;;;5.16;92.92
56174;BME280;42058;52.308;20.924;2023-05-09T03:01:59;101989.05;;;5.13;93.17
56174;BME280;42058;52.308;20.924;2023-05-09T03:04:26;101988.48;;;5.10;93.05
56174;BME280;42058;52.308;20.924;2023-05-09T03:06:52;101989.48;;;5.08;93.28
56174;BME280;42058;52.308;20.924;2023-05-09T03:09:19;101993.44;;;5.06;93.74
56174;BME280;42058;52.308;20.924;2023-05-09T03:11:45;101992.16;;;5.03;93.99
56174;BME280;42058;52.308;20.924;2023-05-09T03:14:11;101994.90;;;5.01;94.08
56174;BME280;42058;52.308;20.924;2023-05-09T03:16:39;101996.23;;;4.99;94.84
56174;BME280;42058;52.308;20.924;2023-05-09T03:19:11;101998.45;;;4.97;94.92
56174;BME280;42058;52.308;20.924;2023-05-09T03:21:37;101996.01;;;4.96;94.68
56174;BME280;42058;52.308;20.924;2023-05-09T03:24:06;101995.64;;;4.95;94.72
56174;BME280;42058;52.308;20.924;2023-05-09T03:26:32;101996.17;;;4.96;95.06
56174;BME280;42058;52.308;20.924;2023-05-09T03:29:01;101995.83;;;4.95;95.44
56174;BME280;42058;52.308;20.924;2023-05-09T03:31:27;101997.55;;;4.95;95.69
56174;BME280;42058;52.308;20.924;2023-05-09T03:33:54;101995.30;;;4.96;95.78
56174;BME280;42058;52.308;20.924;2023-05-09T03:36:20;102003.30;;;4.95;95.82
56174;BME280;42058;52.308;20.924;2023-05-09T03:38:48;102002.77;;;4.96;96.14
56174;BME280;42058;52.308;20.924;2023-05-09T03:41:15;101997.73;;;4.96;96.23
56174;BME280;42058;52.308;20.924;2023-05-09T03:43:42;102000.00;;;4.95;96.21
56174;BME280;42058;52.308;20.924;2023-05-09T03:46:09;102005.58;;;4.96;96.85
56174;BME280;42058;52.308;20.924;2023-05-09T03:48:35;102008.04;;;4.97;97.04
56174;BME280;42058;52.308;20.924;2023-05-09T03:51:02;102008.92;;;4.98;96.98
56174;BME280;42058;52.308;20.924;2023-05-09T03:53:29;102008.08;;;5.00;97.01
56174;BME280;42058;52.308;20.924;2023-05-09T03:55:55;102006.91;;;5.02;97.89
56174;BME280;42058;52.308;20.924;2023-05-09T03:58:21;102006.26;;;5.04;97.84
56174;BME280;42058;52.308;20.924;2023-05-09T04:00:48;102003.86;;;5.06;97.99
56174;BME280;42058;52.308;20.924;2023-05-09T04:03:30;102007.06;;;5.09;98.40
56174;BME280;42058;52.308;20.924;2023-05-09T04:05:57;101999.83;;;5.12;99.42
56174;BME280;42058;52.308;20.924;2023-05-09T04:08:28;102001.28;;;5.15;99.91
56174;BME280;42058;52.308;20.924;2023-05-09T04:10:54;102001.16;;;5.18;100.00
56174;BME280;42058;52.308;20.924;2023-05-09T04:13:21;101997.77;;;5.22;100.00
56174;BME280;42058;52.308;20.924;2023-05-09T04:15:48;101999.06;;;5.26;100.00
56174;BME280;42058;52.308;20.924;2023-05-09T04:18:14;102001.24;;;5.30;100.00
56174;BME280;42058;52.308;20.924;2023-05-09T04:20:41;102001.33;;;5.34;100.00
56174;BME280;42058;52.308;20.924;2023-05-09T04:23:07;101998.31;;;5.40;100.00
56174;BME280;42058;52.308;20.924;2023-05-09T04:25:34;101998.58;;;5.45;100.00
56174;BME280;42058;52.308;20.924;2023-05-09T04:28:00;102002.68;;;5.50;100.00
56174;BME280;42058;52.308;20.924;2023-05-09T04:30:27;102003.67;;;5.56;100.00
56174;BME280;42058;52.308;20.924;2023-05-09T04:32:54;102002.40;;;5.62;100.00
56174;BME280;42058;52.308;20.924;2023-05-09T04:35:21;102001.48;;;5.69;100.00
56174;BME280;42058;52.308;20.924;2023-05-09T04:37:49;102003.02;;;5.76;100.00
56174;BME280;42058;52.308;20.924;2023-05-09T04:40:16;102002.98;;;5.85;100.00
56174;BME280;42058;52.308;20.924;2023-05-09T04:42:48;101996.00;;;5.93;100.00
56174;BME280;42058;52.308;20.924;2023-05-09T04:45:15;101996.86;;;6.01;100.00
56174;BME280;42058;52.308;20.924;2023-05-09T04:47:42;101993.73;;;6.10;100.00
56174;BME280;42058;52.308;20.924;2023-05-09T04:50:09;101992.66;;;6.20;100.00
56174;BME280;42058;52.308;20.924;2023-05-09T04:52:36;101993.35;;;6.31;100.00
56174;BME280;42058;52.308;20.924;2023-05-09T04:55:02;101994.07;;;6.42;100.00
56174;BME280;42058;52.308;20.924;2023-05-09T04:57:32;101994.94;;;6.53;100.00
56174;BME280;42058;52.308;20.924;2023-05-09T04:59:58;101998.05;;;6.64;100.00
56174;BME280;42058;52.308;20.924;2023-05-09T05:02:24;101999.10;;;6.75;100.00
56174;BME280;42058;52.308;20.924;2023-05-09T05:04:52;101997.85;;;6.86;100.00
56174;BME280;42058;52.308;20.924;2023-05-09T05:07:26;101999.61;;;6.99;100.00
56174;BME280;42058;52.308;20.924;2023-05-09T05:09:53;101995.41;;;7.13;100.00
56174;BME280;42058;52.308;20.924;2023-05-09T05:12:19;101996.10;;;7.26;99.87
56174;BME280;42058;52.308;20.924;2023-05-09T05:14:46;101995.22;;;7.39;99.92
56174;BME280;42058;52.308;20.924;2023-05-09T05:17:15;101996.44;;;7.54;99.45
56174;BME280;42058;52.308;20.924;2023-05-09T05:19:43;101998.36;;;7.70;99.38
56174;BME280;42058;52.308;20.924;2023-05-09T05:22:10;101998.33;;;7.86;99.71
56174;BME280;42058;52.308;20.924;2023-05-09T05:24:38;101994.65;;;8.02;99.51
56174;BME280;42058;52.308;20.924;2023-05-09T05:27:04;101995.66;;;8.17;99.00
56174;BME280;42058;52.308;20.924;2023-05-09T05:29:31;101989.67;;;8.34;97.32
56174;BME280;42058;52.308;20.924;2023-05-09T05:31:57;101986.86;;;8.51;95.92
56174;BME280;42058;52.308;20.924;2023-05-09T05:34:26;101988.55;;;8.69;95.81
56174;BME280;42058;52.308;20.924;2023-05-09T05:36:53;101985.50;;;8.87;95.96
56174;BME280;42058;52.308;20.924;2023-05-09T05:39:19;101984.38;;;9.06;94.38
56174;BME280;42058;52.308;20.924;2023-05-09T05:41:47;101981.82;;;9.24;91.95
56174;BME280;42058;52.308;20.924;2023-05-09T05:44:14;101980.15;;;9.43;91.17
56174;BME280;42058;52.308;20.924;2023-05-09T05:46:40;101979.15;;;9.62;89.97
56174;BME280;42058;52.308;20.924;2023-05-09T05:49:07;101977.95;;;9.80;89.25
56174;BME280;42058;52.308;20.924;2023-05-09T05:51:37;101974.81;;;10.00;88.31
56174;BME280;42058;52.308;20.924;2023-05-09T05:54:03;101968.34;;;10.18;85.96
56174;BME280;42058;52.308;20.924;2023-05-09T05:56:30;101972.39;;;10.37;84.36
56174;BME280;42058;52.308;20.924;2023-05-09T05:58:57;101974.12;;;10.57;82.67
56174;BME280;42058;52.308;20.924;2023-05-09T06:01:24;101970.56;;;10.76;81.15
56174;BME280;42058;52.308;20.924;2023-05-09T06:03:50;101970.16;;;10.97;80.11
56174;BME280;42058;52.308;20.924;2023-05-09T06:06:20;101964.98;;;11.18;79.21
56174;BME280;42058;52.308;20.924;2023-05-09T06:08:48;101963.30;;;11.38;75.35
56174;BME280;42058;52.308;20.924;2023-05-09T06:11:15;101960.90;;;11.57;73.09
56174;BME280;42058;52.308;20.924;2023-05-09T06:13:42;101959.73;;;11.76;71.33
56174;BME280;42058;52.308;20.924;2023-05-09T06:16:10;101959.61;;;11.96;70.47
56174;BME280;42058;52.308;20.924;2023-05-09T06:18:48;101960.86;;;12.16;66.97
56174;BME280;42058;52.308;20.924;2023-05-09T06:21:14;101958.94;;;12.34;64.91
56174;BME280;42058;52.308;20.924;2023-05-09T06:23:41;101958.41;;;12.52;63.70
56174;BME280;42058;52.308;20.924;2023-05-09T06:26:28;101958.90;;;12.73;62.48
56174;BME280;42058;52.308;20.924;2023-05-09T06:28:54;101961.34;;;12.91;62.39
56174;BME280;42058;52.308;20.924;2023-05-09T06:31:21;101962.88;;;13.10;61.76
56174;BME280;42058;52.308;20.924;2023-05-09T06:33:51;101961.41;;;13.29;61.32
56174;BME280;42058;52.308;20.924;2023-05-09T06:36:21;101961.33;;;13.49;61.61
56174;BME280;42058;52.308;20.924;2023-05-09T06:38:50;101961.05;;;13.68;60.58
56174;BME280;42058;52.308;20.924;2023-05-09T06:41:17;101959.33;;;13.88;59.66
56174;BME280;42058;52.308;20.924;2023-05-09T06:43:43;101959.73;;;14.07;58.67
56174;BME280;42058;52.308;20.924;2023-05-09T06:46:10;101960.47;;;14.27;57.71
56174;BME280;42058;52.308;20.924;2023-05-09T06:48:37;101957.99;;;14.46;56.06
56174;BME280;42058;52.308;20.924;2023-05-09T06:51:04;101959.65;;;14.64;54.70
56174;BME280;42058;52.308;20.924;2023-05-09T06:53:31;101953.33;;;14.80;54.49
56174;BME280;42058;52.308;20.924;2023-05-09T06:55:59;101949.27;;;14.97;54.02
56174;BME280;42058;52.308;20.924;2023-05-09T06:58:27;101944.11;;;15.16;53.20
56174;BME280;42058;52.308;20.924;2023-05-09T07:00:54;101938.25;;;15.33;52.59
56174;BME280;42058;52.308;20.924;2023-05-09T07:03:21;101935.73;;;15.51;52.12
56174;BME280;42058;52.308;20.924;2023-05-09T07:05:50;101934.02;;;15.72;50.78
56174;BME280;42058;52.308;20.924;2023-05-09T07:08:17;101931.14;;;15.89;50.28
56174;BME280;42058;52.308;20.924;2023-05-09T07:10:44;101931.61;;;16.06;50.47
56174;BME280;42058;52.308;20.924;2023-05-09T07:13:11;101930.97;;;16.24;49.33
56174;BME280;42058;52.308;20.924;2023-05-09T07:15:37;101924.91;;;16.39;48.60
56174;BME280;42058;52.308;20.924;2023-05-09T07:18:08;101924.09;;;16.56;47.67
56174;BME280;42058;52.308;20.924;2023-05-09T07:20:35;101923.84;;;16.71;46.93
56174;BME280;42058;52.308;20.924;2023-05-09T07:23:03;101921.85;;;16.86;46.09
56174;BME280;42058;52.308;20.924;2023-05-09T07:25:29;101925.50;;;17.01;45.90
56174;BME280;42058;52.308;20.924;2023-05-09T07:27:56;101920.06;;;17.17;45.21
56174;BME280;42058;52.308;20.924;2023-05-09T07:30:22;101915.54;;;17.32;44.91
56174;BME280;42058;52.308;20.924;2023-05-09T07:32:49;101909.59;;;17.46;45.22
56174;BME280;42058;52.308;20.924;2023-05-09T07:35:18;101899.83;;;17.63;44.85
56174;BME280;42058;52.308;20.924;2023-05-09T07:37:44;101898.91;;;17.79;44.56
56174;BME280;42058;52.308;20.924;2023-05-09T07:40:11;101899.09;;;17.96;43.80
56174;BME280;42058;52.308;20.924;2023-05-09T07:42:38;101892.77;;;18.10;43.25
56174;BME280;42058;52.308;20.924;2023-05-09T07:45:05;101889.71;;;18.26;42.99
56174;BME280;42058;52.308;20.924;2023-05-09T07:47:32;101889.16;;;18.42;41.53
56174;BME280;42058;52.308;20.924;2023-05-09T07:49:59;101884.30;;;18.53;39.89
56174;BME280;42058;52.308;20.924;2023-05-09T07:52:25;101882.31;;;18.64;39.51
56174;BME280;42058;52.308;20.924;2023-05-09T07:54:52;101879.55;;;18.76;38.98
56174;BME280;42058;52.308;20.924;2023-05-09T07:57:19;101874.51;;;18.88;38.60
56174;BME280;42058;52.308;20.924;2023-05-09T07:59:45;101875.38;;;19.02;38.83
56174;BME280;42058;52.308;20.924;2023-05-09T08:02:14;101877.92;;;19.19;38.50
56174;BME280;42058;52.308;20.924;2023-05-09T08:04:43;101876.61;;;19.34;37.40
56174;BME280;42058;52.308;20.924;2023-05-09T08:07:13;101875.05;;;19.47;36.64
56174;BME280;42058;52.308;20.924;2023-05-09T08:09:40;101869.29;;;19.57;36.70
56174;BME280;42058;52.308;20.924;2023-05-09T08:12:07;101871.52;;;19.72;36.94
56174;BME280;42058;52.308;20.924;2023-05-09T08:14:33;101866.21;;;19.89;37.07
56174;BME280;42058;52.308;20.924;2023-05-09T08:17:00;101861.35;;;20.02;35.83
56174;BME280;42058;52.308;20.924;2023-05-09T08:19:26;101860.89;;;20.13;35.34
56174;BME280;42058;52.308;20.924;2023-05-09T08:21:53;101857.14;;;20.26;35.93
56174;BME280;42058;52.308;20.924;2023-05-09T08:24:19;101853.52;;;20.39;35.16
56174;BME280;42058;52.308;20.924;2023-05-09T08:26:49;101849.77;;;20.50;35.51
56174;BME280;42058;52.308;20.924;2023-05-09T08:29:18;101843.52;;;20.64;35.17
56174;BME280;42058;52.308;20.924;2023-05-09T08:31:52;101847.77;;;20.75;34.82
56174;BME280;42058;52.308;20.924;2023-05-09T08:34:19;101850.14;;;20.82;34.22
56174;BME280;42058;52.308;20.924;2023-05-09T08:36:48;101850.89;;;20.96;34.27
56174;BME280;42058;52.308;20.924;2023-05-09T08:39:15;101844.95;;;21.05;33.59
56174;BME280;42058;52.308;20.924;2023-05-09T08:41:45;101843.11;;;21.13;34.17
56174;BME280;42058;52.308;20.924;2023-05-09T08:44:39;101844.84;;;21.25;33.33
56174;BME280;42058;52.308;20.924;2023-05-09T08:47:06;101838.33;;;21.31;32.57
56174;BME280;42058;52.308;20.924;2023-05-09T08:49:33;101827.52;;;21.37;32.80
56174;BME280;42058;52.308;20.924;2023-05-09T08:52:01;101825.97;;;21.43;33.02
56174;BME280;42058;52.308;20.924;2023-05-09T08:54:28;101821.34;;;21.50;32.66
56174;BME280;42058;52.308;20.924;2023-05-09T08:56:59;101814.71;;;21.61;33.26
56174;BME280;42058;52.308;20.924;2023-05-09T08:59:26;101811.16;;;21.72;32.81
56174;BME280;42058;52.308;20.924;2023-05-09T09:01:54;101809.33;;;21.83;33.15
56174;BME280;42058;52.308;20.924;2023-05-09T09:04:21;101817.95;;;21.96;32.63
56174;BME280;42058;52.308;20.924;2023-05-09T09:06:47;101814.65;;;22.04;32.17
56174;BME280;42058;52.308;20.924;2023-05-09T09:09:14;101817.13;;;22.12;31.86
56174;BME280;42058;52.308;20.924;2023-05-09T09:11:43;101819.64;;;22.18;31.63
56174;BME280;42058;52.308;20.924;2023-05-09T09:14:20;101814.80;;;22.25;31.73
56174;BME280;42058;52.308;20.924;2023-05-09T09:16:49;101817.14;;;22.32;31.42
56174;BME280;42058;52.308;20.924;2023-05-09T09:19:17;101802.69;;;22.35;30.90
56174;BME280;42058;52.308;20.924;2023-05-09T09:21:45;101803.77;;;22.38;31.46
56174;BME280;42058;52.308;20.924;2023-05-09T09:24:13;101806.26;;;22.45;31.18
56174;BME280;42058;52.308;20.924;2023-05-09T09:26:46;101811.05;;;22.49;30.98
56174;BME280;42058;52.308;20.924;2023-05-09T09:29:13;101799.23;;;22.53;30.85
56174;BME280;42058;52.308;20.924;2023-05-09T09:31:43;101796.96;;;22.58;31.03
56174;BME280;42058;52.308;20.924;2023-05-09T09:34:11;101792.80;;;22.62;30.39
56174;BME280;42058;52.308;20.924;2023-05-09T09:36:39;101801.55;;;22.62;29.91
56174;BME280;42058;52.308;20.924;2023-05-09T09:39:06;101787.84;;;22.61;29.90
56174;BME280;42058;52.308;20.924;2023-05-09T09:41:38;101789.90;;;22.59;30.12
56174;BME280;42058;52.308;20.924;2023-05-09T09:44:09;101783.64;;;22.60;30.03
56174;BME280;42058;52.308;20.924;2023-05-09T09:49:12;101785.36;;;22.54;29.92
56174;BME280;42058;52.308;20.924;2023-05-09T09:51:40;101791.48;;;22.50;29.58
56174;BME280;42058;52.308;20.924;2023-05-09T09:54:08;101784.50;;;22.47;29.89
56174;BME280;42058;52.308;20.924;2023-05-09T09:56:43;101778.87;;;22.45;29.52
56174;BME280;42058;52.308;20.924;2023-05-09T09:59:15;101774.59;;;22.42;29.38
56174;BME280;42058;52.308;20.924;2023-05-09T10:02:01;101773.27;;;22.39;29.86
56174;BME280;42058;52.308;20.924;2023-05-09T10:04:35;101772.60;;;22.39;29.60
56174;BME280;42058;52.308;20.924;2023-05-09T10:07:04;101775.34;;;22.35;29.33
56174;BME280;42058;52.308;20.924;2023-05-09T10:09:33;101768.70;;;22.32;29.46
56174;BME280;42058;52.308;20.924;2023-05-09T10:12:04;101766.65;;;22.30;29.66
56174;BME280;42058;52.308;20.924;2023-05-09T10:14:34;101757.76;;;22.29;29.53
56174;BME280;42058;52.308;20.924;2023-05-09T10:17:03;101755.51;;;22.28;29.80
56174;BME280;42058;52.308;20.924;2023-05-09T10:19:30;101760.27;;;22.25;29.86
56174;BME280;42058;52.308;20.924;2023-05-09T10:22:05;101753.92;;;22.20;29.26
56174;BME280;42058;52.308;20.924;2023-05-09T10:24:38;101758.33;;;22.15;29.56
56174;BME280;42058;52.308;20.924;2023-05-09T10:27:10;101750.48;;;22.11;30.10
56174;BME280;42058;52.308;20.924;2023-05-09T10:29:43;101743.80;;;22.09;30.22
56174;BME280;42058;52.308;20.924;2023-05-09T10:32:15;101750.91;;;22.06;29.83
56174;BME280;42058;52.308;20.924;2023-05-09T10:34:47;101750.81;;;22.05;30.12
56174;BME280;42058;52.308;20.924;2023-05-09T10:37:14;101753.71;;;22.04;29.88
56174;BME280;42058;52.308;20.924;2023-05-09T10:39:41;101751.80;;;22.03;29.55
56174;BME280;42058;52.308;20.924;2023-05-09T10:42:09;101746.48;;;21.99;29.14
56174;BME280;42058;52.308;20.924;2023-05-09T10:44:36;101747.27;;;21.94;29.45
56174;BME280;42058;52.308;20.924;2023-05-09T10:47:03;101742.11;;;21.91;29.55
56174;BME280;42058;52.308;20.924;2023-05-09T10:49:30;101733.90;;;21.87;29.38
56174;BME280;42058;52.308;20.924;2023-05-09T10:51:57;101733.21;;;21.83;29.70
56174;BME280;42058;52.308;20.924;2023-05-09T10:54:27;101726.82;;;21.79;29.44
56174;BME280;42058;52.308;20.924;2023-05-09T10:56:57;101735.70;;;21.77;29.84
56174;BME280;42058;52.308;20.924;2023-05-09T10:59:36;101732.78;;;21.75;29.80
56174;BME280;42058;52.308;20.924;2023-05-09T11:02:04;101719.14;;;21.73;29.84
56174;BME280;42058;52.308;20.924;2023-05-09T11:04:31;101718.80;;;21.72;30.64
56174;BME280;42058;52.308;20.924;2023-05-09T11:06:58;101718.85;;;21.74;31.03
56174;BME280;42058;52.308;20.924;2023-05-09T11:09:36;101710.36;;;21.76;30.68
56174;BME280;42058;52.308;20.924;2023-05-09T11:14:38;101707.95;;;21.78;30.24
56174;BME280;42058;52.308;20.924;2023-05-09T11:17:06;101700.66;;;21.77;30.49
56174;BME280;42058;52.308;20.924;2023-05-09T11:22:14;101703.21;;;21.80;30.92
56174;BME280;42058;52.308;20.924;2023-05-09T11:24:45;101694.77;;;21.81;30.11
56174;BME280;42058;52.308;20.924;2023-05-09T11:27:18;101687.61;;;21.81;30.60
56174;BME280;42058;52.308;20.924;2023-05-09T11:29:50;101682.27;;;21.84;30.40
56174;BME280;42058;52.308;20.924;2023-05-09T11:32:18;101680.54;;;21.86;30.68
56174;BME280;42058;52.308;20.924;2023-05-09T11:34:45;101674.62;;;21.90;30.83
56174;BME280;42058;52.308;20.924;2023-05-09T11:37:15;101670.92;;;21.95;31.16
56174;BME280;42058;52.308;20.924;2023-05-09T11:39:59;101666.23;;;22.03;30.84
56174;BME280;42058;52.308;20.924;2023-05-09T11:42:29;101659.47;;;22.12;31.30
56174;BME280;42058;52.308;20.924;2023-05-09T11:44:57;101657.96;;;22.20;30.24
56174;BME280;42058;52.308;20.924;2023-05-09T11:47:24;101655.15;;;22.26;30.27
56174;BME280;42058;52.308;20.924;2023-05-09T11:49:51;101652.83;;;22.32;30.69
56174;BME280;42058;52.308;20.924;2023-05-09T11:52:18;101643.71;;;22.38;30.20
56174;BME280;42058;52.308;20.924;2023-05-09T11:54:46;101646.29;;;22.43;30.16
56174;BME280;42058;52.308;20.924;2023-05-09T11:57:13;101634.16;;;22.50;29.63
56174;BME280;42058;52.308;20.924;2023-05-09T11:59:43;101641.52;;;22.55;29.73
56174;BME280;42058;52.308;20.924;2023-05-09T12:02:10;101636.85;;;22.61;29.76
56174;BME280;42058;52.308;20.924;2023-05-09T12:04:41;101630.89;;;22.69;29.83
56174;BME280;42058;52.308;20.924;2023-05-09T12:12:54;101624.74;;;23.03;29.71
56174;BME280;42058;52.308;20.924;2023-05-09T12:15:22;101619.98;;;23.11;29.15
56174;BME280;42058;52.308;20.924;2023-05-09T12:18:03;101618.48;;;23.18;29.20
56174;BME280;42058;52.308;20.924;2023-05-09T12:20:45;101615.97;;;23.28;29.14
56174;BME280;42058;52.308;20.924;2023-05-09T12:23:13;101609.30;;;23.34;28.69
56174;BME280;42058;52.308;20.924;2023-05-09T12:25:48;101608.30;;;23.42;29.24
56174;BME280;42058;52.308;20.924;2023-05-09T12:28:20;101603.73;;;23.52;28.62
56174;BME280;42058;52.308;20.924;2023-05-09T12:30:48;101600.27;;;23.61;28.55
56174;BME280;42058;52.308;20.924;2023-05-09T12:33:15;101598.44;;;23.71;28.44
56174;BME280;42058;52.308;20.924;2023-05-09T12:35:46;101605.27;;;23.79;28.56
56174;BME280;42058;52.308;20.924;2023-05-09T12:38:19;101592.41;;;23.87;28.41
56174;BME280;42058;52.308;20.924;2023-05-09T12:40:59;101596.67;;;23.93;28.19
56174;BME280;42058;52.308;20.924;2023-05-09T12:43:33;101582.52;;;23.96;27.72
56174;BME280;42058;52.308;20.924;2023-05-09T12:46:01;101578.44;;;24.01;28.08
56174;BME280;42058;52.308;20.924;2023-05-09T12:48:29;101572.41;;;24.05;27.75
56174;BME280;42058;52.308;20.924;2023-05-09T12:51:06;101570.71;;;24.09;27.94
56174;BME280;42058;52.308;20.924;2023-05-09T12:53:37;101567.00;;;24.17;27.90
56174;BME280;42058;52.308;20.924;2023-05-09T12:56:11;101560.95;;;24.24;27.75
56174;BME280;42058;52.308;20.924;2023-05-09T12:58:38;101559.19;;;24.32;27.64
56174;BME280;42058;52.308;20.924;2023-05-09T13:01:05;101546.92;;;24.35;27.37
56174;BME280;42058;52.308;20.924;2023-05-09T13:03:31;101547.95;;;24.36;27.20
56174;BME280;42058;52.308;20.924;2023-05-09T13:06:04;101540.95;;;24.36;27.11
56174;BME280;42058;52.308;20.924;2023-05-09T13:08:34;101541.88;;;24.36;27.15
56174;BME280;42058;52.308;20.924;2023-05-09T13:11:00;101547.57;;;24.34;26.91
56174;BME280;42058;52.308;20.924;2023-05-09T13:13:42;101543.86;;;24.30;26.94